sensor_id;sensor_type;location;lat;lon;timestamp;pressure;altitude;pressure_sealevel;temperature;humidity
6218;BME280;3142;48.206;11.550;2023-02-04T00:00:59;96656.09;;;5.82;89.83
6218;BME280;3142;48.206;11.550;2023-02-04T00:03:26;96666.34;;;5.83;89.93
6218;BME280;3142;48.206;11.550;2023-02-04T00:05:52;96669.09;;;5.82;89.78
6218;BME280;3142;48.206;11.550;2023-02-04T00:08:19;96679.75;;;5.79;90.46
6218;BME280;3142;48.206;11.550;2023-02-04T00:10:46;96679.47;;;5.82;90.96
6218;BME280;3142;48.206;11.550;2023-02-04T00:13:13;96668.94;;;5.83;90.76
6218;BME280;3142;48.206;11.550;2023-02-04T00:15:39;96664.41;;;5.85;90.97
6218;BME280;3142;48.206;11.550;2023-02-04T00:18:06;96670.25;;;5.97;90.48
6218;BME280;3142;48.206;11.550;2023-02-04T00:20:33;96674.63;;;5.97;90.08
6218;BME280;3142;48.206;11.550;2023-02-04T00:23:00;96678.63;;;5.91;90.97
6218;BME280;3142;48.206;11.550;2023-02-04T00:25:26;96679.28;;;5.93;91.05
6218;BME280;3142;48.206;11.550;2023-02-04T00:27:54;96674.91;;;5.93;90.43
6218;BME280;3142;48.206;11.550;2023-02-04T00:30:21;96685.81;;;5.97;90.41
6218;BME280;3142;48.206;11.550;2023-02-04T00:32:47;96668.59;;;5.96;90.40
6218;BME280;3142;48.206;11.550;2023-02-04T00:35:15;96679.81;;;5.97;90.50
6218;BME280;3142;48.206;11.550;2023-02-04T00:37:41;96685.81;;;5.97;90.33
6218;BME280;3142;48.206;11.550;2023-02-04T00:40:09;96686.94;;;5.94;90.49
6218;BME280;3142;48.206;11.550;2023-02-04T00:42:36;96694.72;;;5.94;90.49
6218;BME280;3142;48.206;11.550;2023-02-04T00:45:04;96678.19;;;5.96;90.59
6218;BME280;3142;48.206;11.550;2023-02-04T00:47:30;96684.19;;;5.96;90.76
6218;BME280;3142;48.206;11.550;2023-02-04T00:49:57;96687.59;;;5.97;90.63
6218;BME280;3142;48.206;11.550;2023-02-04T00:52:23;96699.94;;;5.94;91.27
6218;BME280;3142;48.206;11.550;2023-02-04T00:54:50;96709.19;;;5.97;90.74
6218;BME280;3142;48.206;11.550;2023-02-04T00:57:17;96710.47;;;5.93;91.10
6218;BME280;3142;48.206;11.550;2023-02-04T00:59:44;96701.56;;;5.96;91.19
6218;BME280;3142;48.206;11.550;2023-02-04T01:02:11;96708.53;;;5.95;91.40
6218;BME280;3142;48.206;11.550;2023-02-04T01:04:38;96711.94;;;5.96;91.35
6218;BME280;3142;48.206;11.550;2023-02-04T01:07:04;96712.75;;;5.96;91.24
6218;BME280;3142;48.206;11.550;2023-02-04T01:09:31;96713.88;;;5.93;91.31
6218;BME280;3142;48.206;11.550;2023-02-04T01:11:58;96717.69;;;5.89;91.64
6218;BME280;3142;48.206;11.550;2023-02-04T01:14:24;96711.00;;;5.87;91.42
6218;BME280;3142;48.206;11.550;2023-02-04T01:16:50;96712.78;;;5.86;91.70
6218;BME280;3142;48.206;11.550;2023-02-04T01:19:18;96717.97;;;5.86;91.62
6218;BME280;3142;48.206;11.550;2023-02-04T01:21:45;96709.06;;;5.89;91.94
6218;BME280;3142;48.206;11.550;2023-02-04T01:24:12;96727.81;;;5.92;90.89
6218;BME280;3142;48.206;11.550;2023-02-04T01:26:38;96729.47;;;5.93;91.24
6218;BME280;3142;48.206;11.550;2023-02-04T01:29:04;96725.38;;;5.91;91.17
6218;BME280;3142;48.206;11.550;2023-02-04T01:31:31;96722.78;;;5.91;91.47
6218;BME280;3142;48.206;11.550;2023-02-04T01:33:58;96724.25;;;5.93;91.18
6218;BME280;3142;48.206;11.550;2023-02-04T01:36:26;96718.91;;;5.95;91.05
6218;BME280;3142;48.206;11.550;2023-02-04T01:38:53;96718.91;;;5.95;90.91
6218;BME280;3142;48.206;11.550;2023-02-04T01:41:20;96734.50;;;5.95;91.08
6218;BME280;3142;48.206;11.550;2023-02-04T01:43:46;96746.38;;;5.98;90.96
6218;BME280;3142;48.206;11.550;2023-02-04T01:46:14;96751.56;;;5.98;90.98
6218;BME280;3142;48.206;11.550;2023-02-04T01:48:41;96765.22;;;6.00;91.03
6218;BME280;3142;48.206;11.550;2023-02-04T01:51:09;96758.41;;;5.99;90.10
6218;BME280;3142;48.206;11.550;2023-02-04T01:53:38;96759.22;;;5.99;90.70
6218;BME280;3142;48.206;11.550;2023-02-04T01:56:14;96757.13;;;6.03;90.29
6218;BME280;3142;48.206;11.550;2023-02-04T01:58:41;96762.34;;;6.03;89.54
6218;BME280;3142;48.206;11.550;2023-02-04T02:01:10;96763.19;;;6.03;90.32
6218;BME280;3142;48.206;11.550;2023-02-04T02:03:37;96762.72;;;6.08;89.73
6218;BME280;3142;48.206;11.550;2023-02-04T02:06:05;96762.44;;;6.11;89.67
6218;BME280;3142;48.206;11.550;2023-02-04T02:08:33;96765.19;;;6.09;89.14
6218;BME280;3142;48.206;11.550;2023-02-04T02:11:02;96764.22;;;6.10;89.13
6218;BME280;3142;48.206;11.550;2023-02-04T02:13:28;96767.63;;;6.11;89.44
6218;BME280;3142;48.206;11.550;2023-02-04T02:15:55;96766.50;;;6.13;89.90
6218;BME280;3142;48.206;11.550;2023-02-04T02:18:21;96773.50;;;6.13;89.42
6218;BME280;3142;48.206;11.550;2023-02-04T02:20:49;96777.50;;;6.07;89.75
6218;BME280;3142;48.206;11.550;2023-02-04T02:23:20;96783.22;;;6.11;89.61
6218;BME280;3142;48.206;11.550;2023-02-04T02:25:50;96792.50;;;6.13;89.21
6218;BME280;3142;48.206;11.550;2023-02-04T02:28:19;96800.00;;;6.16;89.52
6218;BME280;3142;48.206;11.550;2023-02-04T02:30:46;96786.88;;;6.18;89.41
6218;BME280;3142;48.206;11.550;2023-02-04T02:33:16;96799.19;;;6.16;88.59
6218;BME280;3142;48.206;11.550;2023-02-04T02:35:44;96812.88;;;6.18;88.03
6218;BME280;3142;48.206;11.550;2023-02-04T02:38:12;96803.16;;;6.20;87.54
6218;BME280;3142;48.206;11.550;2023-02-04T02:40:39;96807.25;;;6.13;87.07
6218;BME280;3142;48.206;11.550;2023-02-04T02:43:08;96807.84;;;6.07;86.90
6218;BME280;3142;48.206;11.550;2023-02-04T02:45:36;96799.91;;;6.08;87.16
6218;BME280;3142;48.206;11.550;2023-02-04T02:48:03;96801.03;;;6.06;86.72
6218;BME280;3142;48.206;11.550;2023-02-04T02:50:31;96802.00;;;6.05;86.46
6218;BME280;3142;48.206;11.550;2023-02-04T02:52:58;96815.13;;;6.03;85.98
6218;BME280;3142;48.206;11.550;2023-02-04T02:55:26;96821.31;;;5.92;85.52
6218;BME280;3142;48.206;11.550;2023-02-04T02:57:54;96816.28;;;5.91;86.10
6218;BME280;3142;48.206;11.550;2023-02-04T03:00:24;96816.94;;;5.93;86.29
6218;BME280;3142;48.206;11.550;2023-02-04T03:02:54;96818.72;;;5.92;85.86
6218;BME280;3142;48.206;11.550;2023-02-04T03:05:22;96820.72;;;5.89;85.70
6218;BME280;3142;48.206;11.550;2023-02-04T03:07:50;96815.44;;;5.90;85.44
6218;BME280;3142;48.206;11.550;2023-02-04T03:10:17;96818.88;;;5.91;85.62
6218;BME280;3142;48.206;11.550;2023-02-04T03:12:44;96823.31;;;5.89;85.26
6218;BME280;3142;48.206;11.550;2023-02-04T03:15:12;96829.38;;;5.89;85.44
6218;BME280;3142;48.206;11.550;2023-02-04T03:17:41;96823.63;;;5.86;85.21
6218;BME280;3142;48.206;11.550;2023-02-04T03:20:09;96834.16;;;5.84;85.90
6218;BME280;3142;48.206;11.550;2023-02-04T03:22:36;96824.72;;;5.83;85.48
6218;BME280;3142;48.206;11.550;2023-02-04T03:25:03;96829.53;;;5.78;85.33
6218;BME280;3142;48.206;11.550;2023-02-04T03:27:29;96827.91;;;5.77;85.46
6218;BME280;3142;48.206;11.550;2023-02-04T03:29:56;96843.06;;;5.72;85.25
6218;BME280;3142;48.206;11.550;2023-02-04T03:32:23;96845.13;;;5.69;85.38
6218;BME280;3142;48.206;11.550;2023-02-04T03:34:51;96852.78;;;5.70;85.48
6218;BME280;3142;48.206;11.550;2023-02-04T03:37:17;96857.16;;;5.70;85.06
6218;BME280;3142;48.206;11.550;2023-02-04T03:39:44;96866.19;;;5.65;84.59
6218;BME280;3142;48.206;11.550;2023-02-04T03:42:10;96865.50;;;5.63;84.75
6218;BME280;3142;48.206;11.550;2023-02-04T03:44:36;96870.72;;;5.63;84.41
6218;BME280;3142;48.206;11.550;2023-02-04T03:47:03;96872.34;;;5.64;84.49
6218;BME280;3142;48.206;11.550;2023-02-04T03:49:29;96873.16;;;5.65;84.44
6218;BME280;3142;48.206;11.550;2023-02-04T03:51:57;96890.22;;;5.68;84.08
6218;BME280;3142;48.206;11.550;2023-02-04T03:54:24;96897.72;;;5.61;83.65
6218;BME280;3142;48.206;11.550;2023-02-04T03:56:50;96907.88;;;5.64;83.93
6218;BME280;3142;48.206;11.550;2023-02-04T03:59:17;96907.72;;;5.65;83.08
6218;BME280;3142;48.206;11.550;2023-02-04T04:01:43;96912.78;;;5.67;83.48
6218;BME280;3142;48.206;11.550;2023-02-04T04:04:10;96918.94;;;5.66;83.42
6218;BME280;3142;48.206;11.550;2023-02-04T04:06:36;96918.38;;;5.62;82.99
6218;BME280;3142;48.206;11.550;2023-02-04T04:09:04;96923.59;;;5.62;83.30
6218;BME280;3142;48.206;11.550;2023-02-04T04:11:30;96919.31;;;5.61;83.01
6218;BME280;3142;48.206;11.550;2023-02-04T04:13:57;96927.66;;;5.55;83.33
6218;BME280;3142;48.206;11.550;2023-02-04T04:16:23;96926.84;;;5.55;83.65
6218;BME280;3142;48.206;11.550;2023-02-04T04:18:50;96928.34;;;5.57;83.76
6218;BME280;3142;48.206;11.550;2023-02-04T04:21:16;96920.84;;;5.54;83.47
6218;BME280;3142;48.206;11.550;2023-02-04T04:23:42;96931.47;;;5.61;83.41
6218;BME280;3142;48.206;11.550;2023-02-04T04:26:10;96924.66;;;5.60;82.94
6218;BME280;3142;48.206;11.550;2023-02-04T04:28:37;96932.59;;;5.58;82.94
6218;BME280;3142;48.206;11.550;2023-02-04T04:31:03;96927.81;;;5.54;82.43
6218;BME280;3142;48.206;11.550;2023-02-04T04:33:30;96925.50;;;5.51;82.15
6218;BME280;3142;48.206;11.550;2023-02-04T04:35:56;96929.44;;;5.45;81.35
6218;BME280;3142;48.206;11.550;2023-02-04T04:38:23;96931.78;;;5.39;81.48
6218;BME280;3142;48.206;11.550;2023-02-04T04:40:49;96934.53;;;5.37;81.17
6218;BME280;3142;48.206;11.550;2023-02-04T04:43:17;96941.47;;;5.37;80.95
6218;BME280;3142;48.206;11.550;2023-02-04T04:45:43;96945.16;;;5.34;80.62
6218;BME280;3142;48.206;11.550;2023-02-04T04:48:10;96949.81;;;5.21;80.60
6218;BME280;3142;48.206;11.550;2023-02-04T04:50:36;96956.75;;;5.11;81.13
6218;BME280;3142;48.206;11.550;2023-02-04T04:53:03;96953.88;;;5.14;80.93
6218;BME280;3142;48.206;11.550;2023-02-04T04:55:29;96952.09;;;5.14;80.57
6218;BME280;3142;48.206;11.550;2023-02-04T04:57:56;96959.88;;;5.14;80.51
6218;BME280;3142;48.206;11.550;2023-02-04T05:00:24;96966.84;;;5.14;80.43
6218;BME280;3142;48.206;11.550;2023-02-04T05:02:51;96960.84;;;5.13;80.54
6218;BME280;3142;48.206;11.550;2023-02-04T05:05:17;96966.56;;;5.17;80.13
6218;BME280;3142;48.206;11.550;2023-02-04T05:07:44;96971.09;;;5.15;79.54
6218;BME280;3142;48.206;11.550;2023-02-04T05:10:10;96980.91;;;5.11;79.82
6218;BME280;3142;48.206;11.550;2023-02-04T05:12:37;96988.16;;;5.17;79.80
6218;BME280;3142;48.206;11.550;2023-02-04T05:15:04;96985.84;;;5.24;79.51
6218;BME280;3142;48.206;11.550;2023-02-04T05:17:32;96983.91;;;5.16;79.31
6218;BME280;3142;48.206;11.550;2023-02-04T05:19:58;96989.38;;;5.13;79.39
6218;BME280;3142;48.206;11.550;2023-02-04T05:22:24;96988.81;;;5.19;79.49
6218;BME280;3142;48.206;11.550;2023-02-04T05:24:51;96991.31;;;5.21;79.08
6218;BME280;3142;48.206;11.550;2023-02-04T05:27:17;96997.88;;;5.25;78.79
6218;BME280;3142;48.206;11.550;2023-02-04T05:29:44;97003.59;;;5.28;78.51
6218;BME280;3142;48.206;11.550;2023-02-04T05:32:10;97007.56;;;5.23;78.29
6218;BME280;3142;48.206;11.550;2023-02-04T05:34:38;96998.69;;;5.25;78.56
6218;BME280;3142;48.206;11.550;2023-02-04T05:37:04;97001.97;;;5.27;78.41
6218;BME280;3142;48.206;11.550;2023-02-04T05:39:31;97002.91;;;5.26;78.08
6218;BME280;3142;48.206;11.550;2023-02-04T05:41:57;97004.41;;;5.29;77.55
6218;BME280;3142;48.206;11.550;2023-02-04T05:44:24;97008.78;;;5.28;77.13
6218;BME280;3142;48.206;11.550;2023-02-04T05:46:50;97014.94;;;5.27;77.07
6218;BME280;3142;48.206;11.550;2023-02-04T05:49:16;97020.81;;;5.29;77.01
6218;BME280;3142;48.206;11.550;2023-02-04T05:51:44;97026.53;;;5.33;76.62
6218;BME280;3142;48.206;11.550;2023-02-04T05:54:11;97033.50;;;5.32;76.37
6218;BME280;3142;48.206;11.550;2023-02-04T05:56:43;97035.72;;;5.37;76.45
6218;BME280;3142;48.206;11.550;2023-02-04T05:59:10;97049.06;;;5.32;76.41
6218;BME280;3142;48.206;11.550;2023-02-04T06:01:36;97056.84;;;5.32;76.05
6218;BME280;3142;48.206;11.550;2023-02-04T06:04:03;97060.25;;;5.33;76.58
6218;BME280;3142;48.206;11.550;2023-02-04T06:06:29;97069.31;;;5.39;76.66
6218;BME280;3142;48.206;11.550;2023-02-04T06:08:57;97079.69;;;5.39;76.25
6218;BME280;3142;48.206;11.550;2023-02-04T06:11:23;97067.81;;;5.36;76.48
6218;BME280;3142;48.206;11.550;2023-02-04T06:13:50;97080.91;;;5.34;76.92
6218;BME280;3142;48.206;11.550;2023-02-04T06:16:16;97084.06;;;5.38;76.79
6218;BME280;3142;48.206;11.550;2023-02-04T06:18:43;97087.19;;;5.42;76.63
6218;BME280;3142;48.206;11.550;2023-02-04T06:21:09;97085.84;;;5.38;77.30
6218;BME280;3142;48.206;11.550;2023-02-04T06:23:35;97086.94;;;5.35;77.38
6218;BME280;3142;48.206;11.550;2023-02-04T06:26:03;97097.53;;;5.32;77.21
6218;BME280;3142;48.206;11.550;2023-02-04T06:28:30;97095.78;;;5.32;77.23
6218;BME280;3142;48.206;11.550;2023-02-04T06:30:56;97098.63;;;5.29;77.32
6218;BME280;3142;48.206;11.550;2023-02-04T06:33:23;97096.03;;;5.29;77.56
6218;BME280;3142;48.206;11.550;2023-02-04T06:35:49;97101.91;;;5.31;77.44
6218;BME280;3142;48.206;11.550;2023-02-04T06:38:16;97100.81;;;5.34;77.18
6218;BME280;3142;48.206;11.550;2023-02-04T06:40:43;97106.59;;;5.38;77.30
6218;BME280;3142;48.206;11.550;2023-02-04T06:43:14;97109.31;;;5.36;77.82
6218;BME280;3142;48.206;11.550;2023-02-04T06:45:41;97110.81;;;5.39;77.43
6218;BME280;3142;48.206;11.550;2023-02-04T06:48:07;97107.13;;;5.41;77.41
6218;BME280;3142;48.206;11.550;2023-02-04T06:50:34;97110.69;;;5.40;77.36
6218;BME280;3142;48.206;11.550;2023-02-04T06:53:00;97109.06;;;5.39;77.70
6218;BME280;3142;48.206;11.550;2023-02-04T06:55:26;97111.38;;;5.42;77.50
6218;BME280;3142;48.206;11.550;2023-02-04T06:57:53;97118.34;;;5.42;77.31
6218;BME280;3142;48.206;11.550;2023-02-04T07:00:21;97114.53;;;5.46;77.19
6218;BME280;3142;48.206;11.550;2023-02-04T07:02:47;97115.34;;;5.46;77.02
6218;BME280;3142;48.206;11.550;2023-02-04T07:05:14;97118.88;;;5.45;76.92
6218;BME280;3142;48.206;11.550;2023-02-04T07:07:40;97121.63;;;5.44;77.11
6218;BME280;3142;48.206;11.550;2023-02-04T07:10:07;97128.72;;;5.42;77.10
6218;BME280;3142;48.206;11.550;2023-02-04T07:12:34;97134.31;;;5.37;77.17
6218;BME280;3142;48.206;11.550;2023-02-04T07:15:00;97142.78;;;5.39;77.08
6218;BME280;3142;48.206;11.550;2023-02-04T07:17:28;97146.19;;;5.40;76.84
6218;BME280;3142;48.206;11.550;2023-02-04T07:19:55;97142.25;;;5.45;76.41
6218;BME280;3142;48.206;11.550;2023-02-04T07:22:21;97153.16;;;5.39;76.63
6218;BME280;3142;48.206;11.550;2023-02-04T07:24:47;97155.34;;;5.44;76.34
6218;BME280;3142;48.206;11.550;2023-02-04T07:27:14;97157.00;;;5.45;76.17
6218;BME280;3142;48.206;11.550;2023-02-04T07:29:40;97163.00;;;5.45;76.09
6218;BME280;3142;48.206;11.550;2023-02-04T07:32:07;97163.69;;;5.47;76.13
6218;BME280;3142;48.206;11.550;2023-02-04T07:34:35;97166.88;;;5.51;75.69
6218;BME280;3142;48.206;11.550;2023-02-04T07:37:01;97168.50;;;5.52;75.40
6218;BME280;3142;48.206;11.550;2023-02-04T07:39:28;97179.72;;;5.52;75.23
6218;BME280;3142;48.206;11.550;2023-02-04T07:41:54;97186.81;;;5.50;75.34
6218;BME280;3142;48.206;11.550;2023-02-04T07:44:20;97182.19;;;5.54;75.49
6218;BME280;3142;48.206;11.550;2023-02-04T07:46:47;97184.34;;;5.49;75.57
6218;BME280;3142;48.206;11.550;2023-02-04T07:49:13;97188.72;;;5.48;75.59
6218;BME280;3142;48.206;11.550;2023-02-04T07:51:41;97192.25;;;5.47;75.33
6218;BME280;3142;48.206;11.550;2023-02-04T07:54:08;97193.78;;;5.50;75.02
6218;BME280;3142;48.206;11.550;2023-02-04T07:56:34;97199.94;;;5.49;75.12
6218;BME280;3142;48.206;11.550;2023-02-04T07:59:00;97214.53;;;5.50;75.41
6218;BME280;3142;48.206;11.550;2023-02-04T08:01:27;97200.84;;;5.48;75.24
6218;BME280;3142;48.206;11.550;2023-02-04T08:03:54;97206.16;;;5.46;75.62
6218;BME280;3142;48.206;11.550;2023-02-04T08:06:20;97205.22;;;5.47;75.35
6218;BME280;3142;48.206;11.550;2023-02-04T08:08:48;97200.56;;;5.41;75.78
6218;BME280;3142;48.206;11.550;2023-02-04T08:11:14;97211.00;;;5.51;74.78
6218;BME280;3142;48.206;11.550;2023-02-04T08:13:41;97206.03;;;5.48;74.91
6218;BME280;3142;48.206;11.550;2023-02-04T08:16:07;97211.22;;;5.48;74.86
6218;BME280;3142;48.206;11.550;2023-02-04T08:18:34;97211.13;;;5.49;74.90
6218;BME280;3142;48.206;11.550;2023-02-04T08:21:00;97212.09;;;5.48;74.93
6218;BME280;3142;48.206;11.550;2023-02-04T08:23:29;97223.69;;;5.54;75.05
6218;BME280;3142;48.206;11.550;2023-02-04T08:25:56;97230.41;;;5.56;74.99
6218;BME280;3142;48.206;11.550;2023-02-04T08:28:24;97225.91;;;5.58;75.07
6218;BME280;3142;48.206;11.550;2023-02-04T08:30:50;97229.31;;;5.59;74.86
6218;BME280;3142;48.206;11.550;2023-02-04T08:33:17;97238.50;;;5.63;74.59
6218;BME280;3142;48.206;11.550;2023-02-04T08:35:44;97236.47;;;5.67;74.84
6218;BME280;3142;48.206;11.550;2023-02-04T08:38:10;97237.16;;;5.69;74.48
6218;BME280;3142;48.206;11.550;2023-02-04T08:40:37;97245.75;;;5.69;74.48
6218;BME280;3142;48.206;11.550;2023-02-04T08:43:04;97253.72;;;5.77;74.26
6218;BME280;3142;48.206;11.550;2023-02-04T08:45:31;97251.91;;;5.99;73.88
6218;BME280;3142;48.206;11.550;2023-02-04T08:47:57;97250.66;;;6.72;71.59
6218;BME280;3142;48.206;11.550;2023-02-04T08:50:24;97258.41;;;7.20;70.46
6218;BME280;3142;48.206;11.550;2023-02-04T08:52:50;97250.75;;;7.93;68.72
6218;BME280;3142;48.206;11.550;2023-02-04T08:55:17;97247.34;;;8.65;65.57
6218;BME280;3142;48.206;11.550;2023-02-04T08:57:43;97249.78;;;9.28;64.57
6218;BME280;3142;48.206;11.550;2023-02-04T09:00:12;97250.75;;;9.79;62.62
6218;BME280;3142;48.206;11.550;2023-02-04T09:02:39;97242.25;;;10.19;61.69
6218;BME280;3142;48.206;11.550;2023-02-04T09:05:06;97253.38;;;9.53;61.29
6218;BME280;3142;48.206;11.550;2023-02-04T09:07:32;97255.31;;;9.25;62.38
6218;BME280;3142;48.206;11.550;2023-02-04T09:09:59;97266.16;;;8.77;62.59
6218;BME280;3142;48.206;11.550;2023-02-04T09:12:25;97271.41;;;8.31;65.04
6218;BME280;3142;48.206;11.550;2023-02-04T09:14:52;97282.28;;;7.99;64.88
6218;BME280;3142;48.206;11.550;2023-02-04T09:17:19;97286.50;;;7.73;64.09
6218;BME280;3142;48.206;11.550;2023-02-04T09:19:47;97286.28;;;7.47;65.38
6218;BME280;3142;48.206;11.550;2023-02-04T09:22:13;97283.16;;;7.34;66.35
6218;BME280;3142;48.206;11.550;2023-02-04T09:24:40;97284.81;;;7.25;66.72
6218;BME280;3142;48.206;11.550;2023-02-04T09:27:06;97289.50;;;7.22;67.42
6218;BME280;3142;48.206;11.550;2023-02-04T09:29:32;97284.72;;;7.17;67.94
6218;BME280;3142;48.206;11.550;2023-02-04T09:31:59;97279.38;;;7.09;67.48
6218;BME280;3142;48.206;11.550;2023-02-04T09:34:27;97292.94;;;6.93;66.96
6218;BME280;3142;48.206;11.550;2023-02-04T09:36:53;97299.50;;;6.78;68.34
6218;BME280;3142;48.206;11.550;2023-02-04T09:39:20;97298.97;;;6.74;68.56
6218;BME280;3142;48.206;11.550;2023-02-04T09:41:46;97305.78;;;6.66;67.97
6218;BME280;3142;48.206;11.550;2023-02-04T09:44:15;97302.22;;;6.67;68.17
6218;BME280;3142;48.206;11.550;2023-02-04T09:46:46;97321.53;;;6.64;68.76
6218;BME280;3142;48.206;11.550;2023-02-04T09:49:13;97316.03;;;6.58;68.82
6218;BME280;3142;48.206;11.550;2023-02-04T09:51:42;97314.28;;;6.58;69.42
6218;BME280;3142;48.206;11.550;2023-02-04T09:54:12;97322.19;;;6.57;69.24
6218;BME280;3142;48.206;11.550;2023-02-04T09:56:39;97330.81;;;6.47;69.54
6218;BME280;3142;48.206;11.550;2023-02-04T09:59:09;97325.59;;;6.38;70.57
6218;BME280;3142;48.206;11.550;2023-02-04T10:01:37;97319.25;;;6.21;70.94
6218;BME280;3142;48.206;11.550;2023-02-04T10:04:03;97320.84;;;6.12;71.87
6218;BME280;3142;48.206;11.550;2023-02-04T10:06:30;97330.91;;;5.96;72.59
6218;BME280;3142;48.206;11.550;2023-02-04T10:08:58;97339.25;;;5.90;72.74
6218;BME280;3142;48.206;11.550;2023-02-04T10:11:25;97335.97;;;5.98;72.47
6218;BME280;3142;48.206;11.550;2023-02-04T10:13:53;97345.97;;;6.02;72.45
6218;BME280;3142;48.206;11.550;2023-02-04T10:16:23;97347.25;;;6.08;71.70
6218;BME280;3142;48.206;11.550;2023-02-04T10:18:54;97354.75;;;6.11;71.94
6218;BME280;3142;48.206;11.550;2023-02-04T10:21:24;97363.50;;;6.10;72.01
6218;BME280;3142;48.206;11.550;2023-02-04T10:23:54;97363.47;;;5.79;72.59
6218;BME280;3142;48.206;11.550;2023-02-04T10:26:25;97365.38;;;5.77;73.01
6218;BME280;3142;48.206;11.550;2023-02-04T10:28:57;97355.97;;;5.86;73.36
6218;BME280;3142;48.206;11.550;2023-02-04T10:31:29;97357.28;;;5.91;73.54
6218;BME280;3142;48.206;11.550;2023-02-04T10:34:08;97355.16;;;5.85;73.08
6218;BME280;3142;48.206;11.550;2023-02-04T10:36:36;97359.25;;;5.88;74.08
6218;BME280;3142;48.206;11.550;2023-02-04T10:39:04;97348.41;;;5.94;73.57
6218;BME280;3142;48.206;11.550;2023-02-04T10:41:33;97357.88;;;5.84;74.17
6218;BME280;3142;48.206;11.550;2023-02-04T10:44:04;97355.16;;;5.85;74.50
6218;BME280;3142;48.206;11.550;2023-02-04T10:46:31;97352.84;;;6.03;73.75
6218;BME280;3142;48.206;11.550;2023-02-04T10:48:57;97352.22;;;6.20;73.90
6218;BME280;3142;48.206;11.550;2023-02-04T10:51:24;97356.41;;;6.52;73.09
6218;BME280;3142;48.206;11.550;2023-02-04T10:53:51;97360.38;;;6.56;72.30
6218;BME280;3142;48.206;11.550;2023-02-04T10:56:36;97350.88;;;6.36;72.78
6218;BME280;3142;48.206;11.550;2023-02-04T10:59:03;97355.22;;;6.26;71.80
6218;BME280;3142;48.206;11.550;2023-02-04T11:01:30;97351.34;;;6.10;71.96
6218;BME280;3142;48.206;11.550;2023-02-04T11:03:57;97351.66;;;6.17;71.37
6218;BME280;3142;48.206;11.550;2023-02-04T11:06:23;97363.50;;;6.10;71.34
6218;BME280;3142;48.206;11.550;2023-02-04T11:08:50;97362.81;;;5.87;71.66
6218;BME280;3142;48.206;11.550;2023-02-04T11:11:20;97368.81;;;5.57;73.00
6218;BME280;3142;48.206;11.550;2023-02-04T11:13:59;97358.97;;;5.60;73.36
6218;BME280;3142;48.206;11.550;2023-02-04T11:16:27;97356.84;;;5.65;73.03
6218;BME280;3142;48.206;11.550;2023-02-04T11:18:59;97357.66;;;5.66;73.43
6218;BME280;3142;48.206;11.550;2023-02-04T11:21:27;97355.31;;;5.63;73.76
6218;BME280;3142;48.206;11.550;2023-02-04T11:24:05;97348.41;;;5.73;74.46
6218;BME280;3142;48.206;11.550;2023-02-04T11:26:33;97353.25;;;5.87;73.66
6218;BME280;3142;48.206;11.550;2023-02-04T11:29:23;97352.13;;;6.01;73.62
6218;BME280;3142;48.206;11.550;2023-02-04T11:31:59;97348.47;;;6.13;72.42
6218;BME280;3142;48.206;11.550;2023-02-04T11:34:29;97346.97;;;6.51;72.01
6218;BME280;3142;48.206;11.550;2023-02-04T11:37:14;97346.59;;;6.75;71.10
6218;BME280;3142;48.206;11.550;2023-02-04T11:39:42;97340.97;;;6.79;71.61
6218;BME280;3142;48.206;11.550;2023-02-04T11:42:16;97337.00;;;6.85;71.62
6218;BME280;3142;48.206;11.550;2023-02-04T11:44:49;97343.47;;;7.20;69.97
6218;BME280;3142;48.206;11.550;2023-02-04T11:47:16;97342.63;;;7.38;70.15
6218;BME280;3142;48.206;11.550;2023-02-04T11:49:44;97341.78;;;8.04;67.98
6218;BME280;3142;48.206;11.550;2023-02-04T11:52:13;97339.22;;;8.77;65.15
6218;BME280;3142;48.206;11.550;2023-02-04T11:54:39;97342.34;;;8.63;65.63
6218;BME280;3142;48.206;11.550;2023-02-04T11:57:08;97339.50;;;8.28;65.32
6218;BME280;3142;48.206;11.550;2023-02-04T11:59:36;97336.72;;;8.02;65.49
6218;BME280;3142;48.206;11.550;2023-02-04T12:02:05;97338.88;;;8.07;65.62
6218;BME280;3142;48.206;11.550;2023-02-04T12:04:32;97327.78;;;8.42;62.89
6218;BME280;3142;48.206;11.550;2023-02-04T12:07:00;97333.69;;;8.44;63.73
6218;BME280;3142;48.206;11.550;2023-02-04T12:09:28;97325.50;;;8.57;63.90
6218;BME280;3142;48.206;11.550;2023-02-04T12:11:57;97321.56;;;8.53;63.40
6218;BME280;3142;48.206;11.550;2023-02-04T12:14:29;97332.78;;;8.99;63.75
6218;BME280;3142;48.206;11.550;2023-02-04T12:16:56;97328.38;;;8.99;61.69
6218;BME280;3142;48.206;11.550;2023-02-04T12:19:24;97325.66;;;8.73;62.08
6218;BME280;3142;48.206;11.550;2023-02-04T12:21:51;97329.53;;;8.51;61.85
6218;BME280;3142;48.206;11.550;2023-02-04T12:24:17;97325.78;;;8.26;62.28
6218;BME280;3142;48.206;11.550;2023-02-04T12:26:44;97331.41;;;8.22;61.93
6218;BME280;3142;48.206;11.550;2023-02-04T12:29:11;97321.66;;;7.96;63.24
6218;BME280;3142;48.206;11.550;2023-02-04T12:31:37;97330.47;;;7.86;63.95
6218;BME280;3142;48.206;11.550;2023-02-04T12:34:03;97334.88;;;7.85;64.16
6218;BME280;3142;48.206;11.550;2023-02-04T12:36:31;97331.47;;;7.75;64.20
6218;BME280;3142;48.206;11.550;2023-02-04T12:38:58;97331.06;;;7.70;64.52
6218;BME280;3142;48.206;11.550;2023-02-04T12:41:24;97328.31;;;7.71;64.84
6218;BME280;3142;48.206;11.550;2023-02-04T12:43:50;97331.06;;;7.70;64.86
6218;BME280;3142;48.206;11.550;2023-02-04T12:46:19;97337.25;;;7.59;64.68
6218;BME280;3142;48.206;11.550;2023-02-04T12:48:45;97327.66;;;7.60;64.65
6218;BME280;3142;48.206;11.550;2023-02-04T12:51:12;97327.81;;;7.49;63.79
6218;BME280;3142;48.206;11.550;2023-02-04T12:53:39;97331.66;;;7.45;64.36
6218;BME280;3142;48.206;11.550;2023-02-04T12:56:06;97328.38;;;7.33;64.42
6218;BME280;3142;48.206;11.550;2023-02-04T12:58:32;97328.38;;;7.33;63.82
6218;BME280;3142;48.206;11.550;2023-02-04T13:00:58;97326.59;;;7.24;64.66
6218;BME280;3142;48.206;11.550;2023-02-04T13:03:25;97324.13;;;7.12;64.90
6218;BME280;3142;48.206;11.550;2023-02-04T13:05:52;97325.53;;;7.07;64.50
6218;BME280;3142;48.206;11.550;2023-02-04T13:08:18;97324.56;;;7.18;64.59
6218;BME280;3142;48.206;11.550;2023-02-04T13:10:46;97316.22;;;7.14;63.35
6218;BME280;3142;48.206;11.550;2023-02-04T13:13:16;97322.78;;;7.08;64.80
6218;BME280;3142;48.206;11.550;2023-02-04T13:15:43;97330.88;;;7.05;63.66
6218;BME280;3142;48.206;11.550;2023-02-04T13:18:09;97335.69;;;7.00;64.33
6218;BME280;3142;48.206;11.550;2023-02-04T13:20:36;97333.63;;;7.04;64.41
6218;BME280;3142;48.206;11.550;2023-02-04T13:23:02;97337.56;;;7.08;63.65